Time;durP1;ratioP1;P1;durP2;ratioP2;P2;SDS_P1;SDS_P2;PMS_P1;PMS_P2;Temp;Humidity;BMP_temperature;BMP_pressure;BME280_temperature;BME280_humidity;BME280_pressure;Samples;Min_cycle;Max_cycle;Signal;HPM_P1;HPM_P2
2021/06/17 00:02:19;;;;;;;5.20;4.77;;;;;;;19.59;100.00;98799.47;10538144;28;20193;-74
2021/06/17 00:07:38;;;;;;;6.17;4.80;;;;;;;19.67;100.00;98800.72;10538480;28;20194;-74
2021/06/17 00:13:02;;;;;;;4.57;3.77;;;;;;;19.45;100.00;98814.06;10537204;28;20174;-73
2021/06/17 00:18:21;;;;;;;10.27;5.70;;;;;;;19.38;100.00;98806.75;10538223;28;20237;-73
2021/06/17 00:23:41;;;;;;;8.53;4.07;;;;;;;19.23;100.00;98816.19;10521533;28;20179;-76
2021/06/17 00:29:00;;;;;;;5.60;5.10;;;;;;;19.10;100.00;98814.81;10536994;28;20264;-75
2021/06/17 00:34:19;;;;;;;5.70;4.63;;;;;;;19.10;100.00;98815.56;10537661;28;20222;-76
2021/06/17 00:39:40;;;;;;;5.43;4.10;;;;;;;19.14;100.00;98809.84;10525457;28;20217;-75
2021/06/17 00:44:59;;;;;;;5.17;4.70;;;;;;;19.09;100.00;98804.84;10545330;28;20182;-75
2021/06/17 00:50:19;;;;;;;4.47;3.70;;;;;;;19.05;100.00;98809.78;10544884;28;20174;-76
2021/06/17 00:55:41;;;;;;;5.53;4.83;;;;;;;19.08;100.00;98808.88;10543427;28;20214;-76
2021/06/17 01:01:00;;;;;;;4.70;4.30;;;;;;;18.86;100.00;98805.44;10528621;28;20243;-77
2021/06/17 01:06:19;;;;;;;6.40;4.77;;;;;;;18.78;100.00;98799.34;10529244;28;20202;-77
2021/06/17 01:12:11;;;;;;;5.07;4.47;;;;;;;18.51;100.00;98799.25;10543247;28;20652;-77
2021/06/17 01:17:37;;;;;;;4.93;3.77;;;;;;;18.27;100.00;98803.03;10544014;28;20204;-76
2021/06/17 01:23:20;;;;;;;4.47;4.07;;;;;;;18.28;100.00;98812.16;10543797;28;20178;-75
2021/06/17 01:28:40;;;;;;;6.87;4.73;;;;;;;18.11;100.00;98802.44;10527431;28;20640;-73
2021/06/17 01:34:01;;;;;;;6.10;5.03;;;;;;;18.14;100.00;98802.31;10543013;28;20218;-74
2021/06/17 01:39:21;;;;;;;5.00;4.50;;;;;;;18.03;100.00;98787.25;10541625;28;20205;-77
2021/06/17 01:44:42;;;;;;;6.33;4.60;;;;;;;18.02;100.00;98788.47;10542797;28;20190;-75
2021/06/17 01:50:01;;;;;;;6.50;5.23;;;;;;;17.83;100.00;98786.84;10541761;28;20196;-75
2021/06/17 01:55:21;;;;;;;8.63;5.23;;;;;;;17.75;100.00;98779.97;10541026;28;20178;-73
2021/06/17 02:00:43;;;;;;;4.97;4.57;;;;;;;17.83;100.00;98770.91;10541383;28;20244;-75
2021/06/17 02:06:03;;;;;;;5.50;5.00;;;;;;;17.84;100.00;98782.81;10526461;28;20273;-74
2021/06/17 02:11:26;;;;;;;4.70;4.23;;;;;;;17.59;100.00;98774.63;10525160;28;20556;-73
2021/06/17 02:16:47;;;;;;;5.47;4.97;;;;;;;17.54;100.00;98769.63;10541445;28;20246;-74
2021/06/17 02:22:07;;;;;;;5.03;4.57;;;;;;;17.43;100.00;98779.56;10540787;28;20681;-74
2021/06/17 02:27:29;;;;;;;6.20;5.70;;;;;;;17.43;100.00;98774.81;10523407;28;20186;-74
2021/06/17 02:32:50;;;;;;;6.80;4.53;;;;;;;17.44;100.00;98770.81;10540727;28;20174;-74
2021/06/17 02:38:11;;;;;;;5.63;5.20;;;;;;;17.35;100.00;98773.50;10525287;28;20213;-73
2021/06/17 02:43:34;;;;;;;5.63;4.20;;;;;;;17.33;100.00;98775.16;10539193;28;20559;-73
2021/06/17 02:48:54;;;;;;;10.57;5.40;;;;;;;17.31;100.00;98781.19;10540492;28;20174;-73
2021/06/17 02:54:18;;;;;;;4.87;4.37;;;;;;;17.37;100.00;98782.16;10538832;28;20253;-74
2021/06/17 02:59:57;;;;;;;5.80;5.30;;;;;;;17.13;100.00;98778.22;10539508;28;20241;-74
2021/06/17 03:05:23;;;;;;;6.03;4.90;;;;;;;16.93;100.00;98791.63;10536039;28;20210;-73
2021/06/17 03:10:44;;;;;;;7.80;5.90;;;;;;;16.88;100.00;98797.72;10538479;28;20174;-74
2021/06/17 03:16:07;;;;;;;11.33;5.40;;;;;;;16.86;100.00;98797.44;10539665;28;20178;-73
2021/06/17 03:21:30;;;;;;;4.80;4.40;;;;;;;16.91;100.00;98802.41;10537973;28;20198;-73
2021/06/17 03:26:51;;;;;;;7.27;5.80;;;;;;;16.72;100.00;98807.47;10536689;28;20532;-73
2021/06/17 03:32:12;;;;;;;5.20;4.70;;;;;;;16.53;100.00;98811.25;10539317;28;20257;-73
2021/06/17 03:37:32;;;;;;;10.23;6.13;;;;;;;16.52;100.00;98813.22;10523050;28;20587;-73
2021/06/17 03:42:52;;;;;;;8.20;5.63;;;;;;;16.74;100.00;98810.53;10537851;28;20632;-75
2021/06/17 03:48:13;;;;;;;6.77;5.27;;;;;;;16.73;100.00;98822.88;10538815;28;20186;-77
2021/06/17 03:53:33;;;;;;;5.03;4.03;;;;;;;16.79;100.00;98833.00;10536727;28;20186;-76
2021/06/17 03:58:52;;;;;;;7.47;5.10;;;;;;;16.74;100.00;98819.66;10523275;28;20213;-75
2021/06/17 04:04:11;;;;;;;6.53;5.17;;;;;;;16.81;100.00;98825.75;10538532;28;20660;-74
2021/06/17 04:09:36;;;;;;;6.10;4.70;;;;;;;16.98;100.00;98824.41;10536046;28;20174;-74
2021/06/17 04:14:59;;;;;;;6.73;5.50;;;;;;;17.00;100.00;98833.06;10501603;28;20183;-75
2021/06/17 04:20:24;;;;;;;7.27;5.23;;;;;;;17.08;100.00;98839.19;10503963;28;20206;-74
2021/06/17 04:25:44;;;;;;;6.30;5.20;;;;;;;17.22;100.00;98847.03;10502831;28;20559;-77
2021/06/17 04:31:04;;;;;;;7.23;5.50;;;;;;;17.29;100.00;98842.03;10504021;28;20167;-74
2021/06/17 04:36:23;;;;;;;7.60;6.50;;;;;;;17.34;100.00;98838.69;10503186;28;20629;-77
2021/06/17 04:41:44;;;;;;;8.33;6.40;;;;;;;17.42;100.00;98850.31;10518652;28;20621;-77
2021/06/17 04:47:04;;;;;;;7.10;5.77;;;;;;;17.58;100.00;98843.38;10544941;28;20190;-77
2021/06/17 04:52:33;;;;;;;7.67;5.53;;;;;;;17.77;100.00;98833.16;10543411;28;20189;-78
2021/06/17 04:57:53;;;;;;;7.93;5.87;;;;;;;18.05;100.00;98841.22;10525186;28;20218;-76
2021/06/17 05:03:12;;;;;;;7.80;5.90;;;;;;;18.37;100.00;98834.50;10544078;28;20667;-75
2021/06/17 05:14:09;;;;;;;7.73;5.87;;;;;;;19.07;100.00;98863.84;10568557;28;20648;-77
2021/06/17 05:19:28;;;;;;;8.40;6.33;;;;;;;19.43;100.00;98855.59;10553771;28;20267;-76
2021/06/17 05:24:47;;;;;;;9.00;6.17;;;;;;;19.84;100.00;98860.56;10526050;28;20189;-77
2021/06/17 05:30:07;;;;;;;7.03;6.33;;;;;;;20.22;100.00;98865.19;10543599;28;20552;-75
2021/06/17 05:35:26;;;;;;;7.80;5.80;;;;;;;20.60;100.00;98873.78;10542746;28;20229;-77
2021/06/17 05:40:46;;;;;;;6.80;6.10;;;;;;;21.03;100.00;98888.09;10541432;28;20222;-77
2021/06/17 05:46:05;;;;;;;8.00;6.63;;;;;;;21.45;100.00;98893.59;10573074;28;20692;-78
2021/06/17 05:51:24;;;;;;;14.40;7.57;;;;;;;21.67;100.00;98892.84;10584866;28;20165;-77
2021/06/17 05:56:43;;;;;;;7.33;5.23;;;;;;;22.05;100.00;98886.47;10545858;28;20648;-74
2021/06/17 06:02:03;;;;;;;8.57;6.20;;;;;;;22.44;100.00;98882.38;10541673;28;20348;-77
2021/06/17 06:07:22;;;;;;;6.67;6.07;;;;;;;22.85;100.00;98887.69;10541962;28;20178;-74
2021/06/17 06:12:41;;;;;;;6.20;5.60;;;;;;;23.29;100.00;98868.72;10543163;28;20178;-77
2021/06/17 06:18:14;;;;;;;6.97;6.27;;;;;;;23.77;93.44;98874.25;10545303;28;20571;-76
2021/06/17 06:23:33;;;;;;;6.27;5.67;;;;;;;24.17;89.63;98882.59;10525124;28;20182;-76
2021/06/17 06:28:52;;;;;;;6.47;5.40;;;;;;;24.58;88.73;98881.25;10539984;28;20178;-75
2021/06/17 06:34:11;;;;;;;6.33;5.67;;;;;;;24.98;83.99;98876.22;10540334;28;20241;-76
2021/06/17 06:39:30;;;;;;;6.23;5.30;;;;;;;25.49;65.33;98876.84;10523681;28;20227;-76
2021/06/17 06:44:50;;;;;;;6.80;5.17;;;;;;;25.91;60.94;98871.16;10540497;28;20178;-77
2021/06/17 06:50:10;;;;;;;5.07;4.70;;;;;;;26.34;59.64;98866.88;10550897;28;20192;-76
2021/06/17 06:55:29;;;;;;;5.93;5.33;;;;;;;26.62;58.54;98874.13;10540304;28;20182;-77
2021/06/17 07:00:48;;;;;;;6.07;5.47;;;;;;;27.01;59.40;98867.25;10537924;28;20205;-77
2021/06/17 07:06:07;;;;;;;6.00;5.30;;;;;;;27.40;57.66;98867.94;10539558;28;20193;-76
2021/06/17 07:11:26;;;;;;;5.20;4.70;;;;;;;27.75;55.01;98866.03;10538145;28;20173;-78
2021/06/17 07:16:46;;;;;;;5.60;5.10;;;;;;;28.28;51.50;98862.72;10539387;28;20174;-78
2021/06/17 07:22:05;;;;;;;5.40;5.00;;;;;;;28.52;51.87;98872.06;10539025;28;20209;-75
2021/06/17 07:27:24;;;;;;;5.50;5.10;;;;;;;28.83;51.20;98879.31;10522019;28;20194;-75
2021/06/17 07:32:45;;;;;;;7.50;5.40;;;;;;;29.28;50.03;98875.56;10538943;28;20620;-75
2021/06/17 07:38:04;;;;;;;5.43;4.90;;;;;;;29.78;48.31;98872.97;10533483;28;20292;-76
2021/06/17 07:43:23;;;;;;;5.60;5.10;;;;;;;30.19;47.22;98871.41;10536653;28;20181;-78
2021/06/17 07:48:44;;;;;;;5.30;4.80;;;;;;;30.18;45.93;98882.00;10544055;28;20170;-75
2021/06/17 07:54:04;;;;;;;5.60;5.10;;;;;;;30.29;44.44;98884.69;10530614;28;20174;-77
2021/06/17 07:59:24;;;;;;;5.60;5.10;;;;;;;30.87;42.60;98885.63;10546283;28;20630;-76
2021/06/17 08:04:43;;;;;;;5.93;4.60;;;;;;;31.27;45.46;98887.28;10546825;28;20194;-79
2021/06/17 08:10:03;;;;;;;5.07;4.67;;;;;;;31.46;41.01;98893.66;10545485;28;20169;-76
2021/06/17 08:15:22;;;;;;;5.80;4.73;;;;;;;31.88;42.11;98877.06;10546487;28;20202;-76
2021/06/17 08:20:44;;;;;;;4.93;4.33;;;;;;;32.35;38.95;98877.13;10545844;28;20609;-79
2021/06/17 08:26:03;;;;;;;4.40;4.10;;;;;;;32.81;40.17;98885.63;10542597;28;20543;-75
2021/06/17 08:31:22;;;;;;;5.00;4.60;;;;;;;33.28;37.93;98882.09;10545588;28;20177;-78
2021/06/17 08:36:41;;;;;;;5.23;4.17;;;;;;;33.47;37.01;98885.47;10545127;28;20225;-76
2021/06/17 08:42:01;;;;;;;4.77;4.37;;;;;;;33.87;36.57;98874.53;10528146;28;20210;-76
2021/06/17 08:47:21;;;;;;;4.70;4.30;;;;;;;33.89;35.05;98872.63;10545233;28;20181;-75
2021/06/17 08:52:41;;;;;;;5.10;4.60;;;;;;;34.29;33.50;98868.84;10529713;28;20200;-76
2021/06/17 08:58:00;;;;;;;4.47;4.07;;;;;;;34.97;34.79;98857.59;10542791;28;20200;-77
2021/06/17 09:03:19;;;;;;;4.33;3.30;;;;;;;35.23;32.97;98861.63;10545436;28;20671;-75
2021/06/17 09:08:39;;;;;;;4.00;3.70;;;;;;;35.57;32.25;98856.28;10565747;28;20184;-77
2021/06/17 09:14:18;;;;;;;4.87;4.20;;;;;;;35.28;31.25;98848.47;10544190;28;20170;-77
2021/06/17 09:19:50;;;;;;;5.03;3.40;;;;;;;35.12;33.17;98844.88;10543621;28;20213;-76
2021/06/17 09:25:09;;;;;;;3.57;3.37;;;;;;;35.77;30.70;98848.78;10542281;28;20186;-75
2021/06/17 09:30:28;;;;;;;4.03;3.73;;;;;;;35.89;30.21;98845.72;10541499;28;20232;-75
2021/06/17 09:35:53;;;;;;;3.50;3.30;;;;;;;36.21;29.83;98840.06;10546587;28;20229;-78
2021/06/17 09:41:38;;;;;;;4.40;4.00;;;;;;;36.42;30.48;98848.41;10499711;28;20206;-76
2021/06/17 09:47:18;;;;;;;3.73;3.43;;;;;;;36.97;29.42;98844.81;10485668;28;20652;-75
2021/06/17 09:52:38;;;;;;;4.27;3.97;;;;;;;36.39;28.40;98838.06;10485579;28;20175;-76
2021/06/17 09:57:57;;;;;;;3.90;3.60;;;;;;;37.04;28.68;98846.84;10484004;28;20194;-76
2021/06/17 10:03:17;;;;;;;3.43;3.23;;;;;;;37.19;28.35;98837.38;10529854;28;20205;-75
2021/06/17 10:08:36;;;;;;;4.40;4.00;;;;;;;36.88;28.30;98833.19;10552919;28;20260;-75
2021/06/17 10:13:56;;;;;;;3.60;3.40;;;;;;;37.49;25.81;98837.09;10540910;28;20567;-76
2021/06/17 10:19:19;;;;;;;3.70;3.40;;;;;;;36.89;29.55;98820.38;10541383;28;20234;-75
2021/06/17 10:24:41;;;;;;;3.83;3.63;;;;;;;37.73;28.54;98806.22;10539691;28;20537;-75
2021/06/17 10:30:00;;;;;;;4.40;4.10;;;;;;;37.69;26.95;98814.47;10541208;28;20169;-77
2021/06/17 10:35:28;;;;;;;4.13;3.60;;;;;;;38.14;26.82;98821.81;10541335;28;20626;-76
2021/06/17 10:40:47;;;;;;;3.53;3.33;;;;;;;39.15;24.75;98807.13;10556781;28;20644;-76
2021/06/17 10:46:09;;;;;;;4.00;3.73;;;;;;;39.52;24.61;98817.22;10581826;28;20209;-76
2021/06/17 10:51:28;;;;;;;3.40;3.10;;;;;;;39.22;23.98;98798.34;10582450;28;20172;-75
2021/06/17 10:56:50;;;;;;;2.70;2.50;;;;;;;39.73;21.62;98806.63;10561100;28;20631;-76
2021/06/17 11:02:09;;;;;;;2.80;2.60;;;;;;;39.69;22.26;98805.56;10538890;28;20205;-75
2021/06/17 11:07:28;;;;;;;3.17;2.97;;;;;;;38.93;22.73;98814.00;10549575;28;20185;-76
2021/06/17 11:12:53;;;;;;;3.20;3.00;;;;;;;38.47;23.26;98812.41;10538076;28;20178;-76
2021/06/17 11:18:13;;;;;;;5.53;2.70;;;;;;;40.01;22.36;98808.03;10523909;28;20224;-76
2021/06/17 11:23:32;;;;;;;2.65;2.45;;;;;;;40.30;22.79;98801.66;10539112;28;20244;-75
2021/06/17 11:28:52;;;;;;;3.38;3.05;;;;;;;40.59;22.69;98795.81;10538074;28;20189;-77
2021/06/17 11:34:14;;;;;;;3.47;3.28;;;;;;;40.69;22.19;98787.88;10538799;28;20213;-75
2021/06/17 11:39:34;;;;;;;3.30;3.05;;;;;;;41.14;22.50;98791.22;10563237;28;20201;-76
2021/06/17 11:44:58;;;;;;;4.15;2.65;;;;;;;40.94;22.29;98783.97;10581062;28;20194;-75
2021/06/17 11:50:20;;;;;;;3.28;3.08;;;;;;;41.12;20.69;98790.28;10565443;28;20181;-76
2021/06/17 11:55:56;;;;;;;3.17;2.97;;;;;;;40.15;20.79;98784.63;10568552;28;20178;-75
2021/06/17 12:01:16;;;;;;;6.63;3.45;;;;;;;39.42;20.66;98781.88;10537888;28;20293;-75
2021/06/17 12:06:36;;;;;;;3.05;2.85;;;;;;;40.06;21.52;98781.78;10543385;28;20190;-75
2021/06/17 12:12:16;;;;;;;3.42;3.15;;;;;;;40.62;20.43;98775.16;10561375;28;20193;-75
2021/06/17 12:18:07;;;;;;;3.65;3.35;;;;;;;40.36;20.99;98781.91;10580149;28;20259;-79
2021/06/17 12:23:32;;;;;;;4.57;2.90;;;;;;;41.34;21.41;98783.19;10580345;28;20251;-77
2021/06/17 12:28:56;;;;;;;3.30;3.00;;;;;;;42.24;19.63;98779.28;10542216;28;20189;-78
2021/06/17 12:34:18;;;;;;;2.97;2.80;;;;;;;41.36;19.42;98778.28;10540062;28;20209;-77
2021/06/17 12:39:40;;;;;;;3.53;3.33;;;;;;;42.44;19.09;98763.22;10554964;28;20241;-78
2021/06/17 12:45:14;;;;;;;2.50;2.40;;;;;;;42.35;19.67;98775.66;10545413;28;20735;-78
2021/06/17 12:56:11;;;;;;;4.22;3.72;;;;;;;42.98;18.80;98764.56;10542122;28;20183;-78
2021/06/17 13:01:59;;;;;;;3.65;3.45;;;;;;;43.38;18.78;98757.59;10527313;28;20209;-77
2021/06/17 13:07:20;;;;;;;3.10;2.90;;;;;;;43.20;18.69;98762.28;10543181;28;20217;-76
2021/06/17 13:12:39;;;;;;;3.25;3.05;;;;;;;42.87;19.19;98753.72;10527290;28;20177;-78
2021/06/17 13:18:07;;;;;;;3.63;3.33;;;;;;;43.20;18.73;98770.97;10543477;28;20182;-78
2021/06/17 13:23:35;;;;;;;3.47;3.28;;;;;;;42.77;17.47;98749.44;10543682;28;20260;-77
2021/06/17 13:47:53;;;;;;;2.90;2.72;;;;;;;43.06;18.88;98744.00;11582564;23;114712;-85
2021/06/17 13:53:12;;;;;;;3.63;3.42;;;;;;;43.04;17.61;98738.13;10301041;28;20670;-85
2021/06/17 13:58:33;;;;;;;3.30;3.10;;;;;;;42.44;17.79;98734.28;10310412;28;20185;-83
2021/06/17 14:03:53;;;;;;;3.20;3.00;;;;;;;43.20;19.18;98728.28;10313924;28;20193;-83
2021/06/17 14:09:14;;;;;;;3.50;3.30;;;;;;;43.37;20.06;98724.97;10305465;28;20237;-83
2021/06/17 14:14:33;;;;;;;3.65;3.35;;;;;;;43.52;18.87;98722.31;10313757;28;20170;-83
2021/06/17 14:19:52;;;;;;;4.40;3.47;;;;;;;43.80;18.01;98718.16;10320161;28;20253;-83
2021/06/17 14:25:12;;;;;;;3.38;3.17;;;;;;;43.72;18.58;98719.84;10315196;28;20190;-83
2021/06/17 14:30:31;;;;;;;4.07;3.88;;;;;;;43.83;18.04;98711.09;10312584;28;20205;-83
2021/06/17 14:35:50;;;;;;;3.45;3.25;;;;;;;43.95;18.66;98720.50;10316442;28;20201;-83
2021/06/17 14:41:12;;;;;;;3.00;2.80;;;;;;;43.24;19.11;98713.28;10296353;28;20186;-83
2021/06/17 14:46:31;;;;;;;3.22;3.03;;;;;;;42.24;18.26;98712.75;10291319;29;20206;-83
2021/06/17 14:51:50;;;;;;;3.20;2.95;;;;;;;43.12;19.32;98704.63;10274798;29;20280;-83
2021/06/17 14:57:10;;;;;;;2.90;2.70;;;;;;;42.68;18.40;98695.31;10275841;29;20249;-84
2021/06/17 15:02:29;;;;;;;3.15;2.95;;;;;;;42.69;18.28;98696.81;10286115;29;20575;-83
2021/06/17 15:07:48;;;;;;;3.58;3.20;;;;;;;43.10;17.72;98697.97;10293870;29;20289;-84
2021/06/17 15:19:12;;;;;;;3.30;3.10;;;;;;;43.64;18.20;98687.47;10293794;29;20209;-84
2021/06/17 15:24:31;;;;;;;2.65;2.50;;;;;;;43.84;17.60;98688.63;10294168;29;20202;-84
2021/06/17 15:29:50;;;;;;;2.70;2.50;;;;;;;43.25;17.73;98688.72;10287949;29;20209;-84
2021/06/17 15:35:10;;;;;;;3.92;3.05;;;;;;;42.85;17.80;98678.31;10289321;29;20190;-84
2021/06/17 15:40:29;;;;;;;3.08;2.88;;;;;;;43.39;16.80;98683.75;10297069;29;20178;-83
2021/06/17 15:45:48;;;;;;;3.72;3.53;;;;;;;42.89;17.80;98693.06;10294967;29;20202;-84
2021/06/17 15:51:08;;;;;;;2.97;2.78;;;;;;;42.45;17.87;98692.41;10293475;28;20629;-84
2021/06/17 15:56:27;;;;;;;3.22;3.03;;;;;;;42.11;19.42;98698.88;10296002;29;20182;-84
2021/06/17 16:01:47;;;;;;;3.20;3.00;;;;;;;41.90;18.91;98684.47;10287972;29;20213;-83
2021/06/17 16:07:06;;;;;;;7.03;3.08;;;;;;;41.29;18.21;98697.63;10288154;29;20214;-83
2021/06/17 16:12:26;;;;;;;2.83;2.70;;;;;;;40.65;18.91;98693.13;10281227;29;20198;-84
2021/06/17 16:17:49;;;;;;;2.90;2.70;;;;;;;40.81;19.01;98687.75;10284324;29;20174;-83
2021/06/17 16:23:09;;;;;;;2.95;2.75;;;;;;;41.11;19.39;98687.72;10276604;29;20190;-83
2021/06/17 16:28:27;;;;;;;3.58;2.72;;;;;;;41.39;19.14;98678.88;10278090;29;20210;-83
2021/06/17 16:33:46;;;;;;;3.35;3.15;;;;;;;41.32;19.63;98685.59;10275475;29;20194;-84
2021/06/17 16:39:05;;;;;;;3.20;3.00;;;;;;;41.79;19.62;98681.56;10283914;29;20202;-83
2021/06/17 16:44:25;;;;;;;3.42;3.22;;;;;;;41.57;19.81;98677.19;10283113;29;20206;-83
2021/06/17 16:49:43;;;;;;;3.90;3.70;;;;;;;41.31;18.81;98678.31;10275136;29;20641;-84
2021/06/17 16:55:07;;;;;;;2.80;2.60;;;;;;;41.29;19.26;98675.28;10273222;29;20276;-83
2021/06/17 17:00:26;;;;;;;2.92;2.72;;;;;;;41.25;20.22;98669.22;10267480;29;20178;-84
2021/06/17 17:05:46;;;;;;;2.97;2.78;;;;;;;41.00;19.90;98662.41;10263762;29;20190;-83
2021/06/17 17:11:05;;;;;;;3.45;3.00;;;;;;;40.86;20.41;98667.22;10265820;29;20214;-83
2021/06/17 17:16:24;;;;;;;3.10;2.90;;;;;;;40.52;20.42;98666.94;10262443;29;20628;-84
2021/06/17 17:21:44;;;;;;;2.50;2.40;;;;;;;40.24;21.10;98659.88;10265824;29;20606;-84
2021/06/17 17:27:04;;;;;;;3.33;3.13;;;;;;;40.19;20.66;98663.88;10262459;29;20194;-84
2021/06/17 17:32:36;;;;;;;3.22;3.03;;;;;;;40.49;21.23;98668.91;10261970;29;20186;-84
2021/06/17 17:37:55;;;;;;;3.15;2.85;;;;;;;40.45;21.44;98665.75;10265236;29;20190;-84
2021/06/17 17:43:14;;;;;;;2.90;2.70;;;;;;;39.67;22.62;98667.16;10263108;28;20182;-84
2021/06/17 17:48:34;;;;;;;3.50;3.30;;;;;;;38.10;24.89;98669.19;10260728;29;20233;-84
2021/06/17 17:53:53;;;;;;;2.93;2.73;;;;;;;36.78;26.87;98672.47;10262386;29;20589;-85
2021/06/17 17:59:12;;;;;;;3.00;2.80;;;;;;;35.78;29.86;98667.84;10259858;29;20186;-84
2021/06/17 18:04:31;;;;;;;2.80;2.70;;;;;;;35.05;31.61;98668.31;10259161;29;20229;-84
2021/06/17 18:10:03;;;;;;;3.53;3.33;;;;;;;34.50;33.13;98671.56;10281592;28;20213;-84
2021/06/17 18:15:28;;;;;;;3.03;2.83;;;;;;;34.07;32.75;98663.19;10272237;28;20194;-84
2021/06/17 18:20:47;;;;;;;3.73;3.53;;;;;;;33.63;32.97;98663.81;10269615;29;20174;-84
2021/06/17 18:26:06;;;;;;;2.97;2.80;;;;;;;33.29;32.59;98663.25;10264820;29;20182;-83
2021/06/17 18:31:26;;;;;;;3.10;2.90;;;;;;;32.88;32.95;98660.53;10263867;29;20206;-83
2021/06/17 18:36:45;;;;;;;3.23;3.00;;;;;;;32.57;32.43;98660.88;10294469;29;20194;-83
2021/06/17 18:42:05;;;;;;;3.10;2.90;;;;;;;32.27;33.27;98671.25;10287710;29;20186;-83
2021/06/17 18:47:24;;;;;;;3.57;3.27;;;;;;;31.96;38.77;98673.03;10290620;29;20246;-83
2021/06/17 18:53:12;;;;;;;3.17;2.97;;;;;;;31.34;41.72;98664.91;10293293;29;20265;-83
2021/06/17 18:58:31;;;;;;;2.93;2.73;;;;;;;30.42;41.90;98674.66;10295534;29;20446;-83
2021/06/17 19:03:50;;;;;;;4.93;3.70;;;;;;;29.72;44.48;98685.09;10288610;29;20182;-85
2021/06/17 19:09:11;;;;;;;3.33;3.13;;;;;;;29.37;45.33;98688.19;10259501;29;20202;-85
2021/06/17 19:14:29;;;;;;;7.73;3.43;;;;;;;28.98;45.95;98693.53;10276456;28;20183;-84
2021/06/17 19:19:59;;;;;;;4.17;3.77;;;;;;;28.68;47.54;98692.78;10263412;28;20187;-85
2021/06/17 19:25:22;;;;;;;3.00;2.80;;;;;;;28.48;49.22;98695.31;10272627;28;20187;-85
2021/06/17 19:30:56;;;;;;;2.83;2.47;;;;;;;28.06;49.69;98692.34;10264702;28;20210;-85
2021/06/17 19:36:15;;;;;;;3.40;3.20;;;;;;;27.71;49.71;98706.47;10262675;28;20178;-84
2021/06/17 19:41:35;;;;;;;3.57;3.27;;;;;;;27.37;51.39;98705.09;10288495;28;20190;-85
2021/06/17 19:46:54;;;;;;;3.67;3.37;;;;;;;26.97;52.76;98700.13;10263014;28;20676;-85
2021/06/17 19:52:14;;;;;;;3.43;3.13;;;;;;;26.91;51.37;98702.16;10268623;28;20250;-85
2021/06/17 19:57:33;;;;;;;3.10;2.80;;;;;;;26.86;51.00;98711.44;10258973;28;20624;-86
2021/06/17 20:02:52;;;;;;;4.17;3.80;;;;;;;26.75;52.50;98703.00;10293616;28;20186;-85
2021/06/17 20:08:13;;;;;;;6.30;3.53;;;;;;;26.66;54.37;98717.38;10235737;29;20210;-88
2021/06/17 20:13:33;;;;;;;2.90;2.70;;;;;;;26.09;56.10;98713.56;10255587;29;20190;-85
2021/06/17 20:18:54;;;;;;;4.23;3.33;;;;;;;25.67;57.80;98715.81;10254133;29;20629;-86
2021/06/17 20:24:15;;;;;;;4.60;3.73;;;;;;;25.15;59.49;98713.84;10254337;29;20214;-86
2021/06/17 20:29:37;;;;;;;3.23;2.93;;;;;;;24.96;60.80;98723.19;10253603;29;20214;-84
2021/06/17 20:34:59;;;;;;;3.80;3.50;;;;;;;24.75;61.06;98722.59;10255028;29;20190;-85
2021/06/17 20:40:21;;;;;;;4.03;3.73;;;;;;;24.43;61.50;98732.31;10253418;28;20253;-85
2021/06/17 20:45:41;;;;;;;3.60;3.40;;;;;;;24.32;61.08;98737.06;10252215;29;20203;-84
2021/06/17 20:51:01;;;;;;;3.60;3.30;;;;;;;24.10;63.11;98742.50;10252632;29;20231;-84
2021/06/17 20:56:21;;;;;;;4.57;3.77;;;;;;;23.85;65.67;98743.28;10253032;29;20186;-84
2021/06/17 21:01:40;;;;;;;3.00;2.80;;;;;;;23.70;64.61;98747.47;10253009;29;20182;-84
2021/06/17 21:06:59;;;;;;;4.10;3.70;;;;;;;23.65;66.66;98742.53;10253652;29;20289;-85
2021/06/17 21:12:18;;;;;;;4.10;3.80;;;;;;;23.65;69.05;98748.16;10252530;29;20183;-86
2021/06/17 21:17:37;;;;;;;3.80;3.47;;;;;;;23.33;70.86;98746.53;10251372;29;20183;-85
2021/06/17 21:22:57;;;;;;;6.60;4.90;;;;;;;23.12;71.69;98752.63;10253931;29;20183;-85
2021/06/17 21:28:16;;;;;;;3.73;3.43;;;;;;;22.87;71.41;98753.28;10253005;29;20210;-84
2021/06/17 21:33:34;;;;;;;4.30;3.90;;;;;;;22.71;72.93;98751.81;10251105;29;20578;-86
2021/06/17 21:38:54;;;;;;;4.83;3.77;;;;;;;22.47;72.39;98761.63;10253848;29;20182;-86
2021/06/17 21:44:13;;;;;;;3.63;3.10;;;;;;;22.37;74.97;98765.81;10255467;28;20202;-87
2021/06/17 21:49:32;;;;;;;4.13;3.80;;;;;;;22.23;77.12;98769.38;10257887;28;20222;-87
2021/06/17 21:54:51;;;;;;;3.93;3.63;;;;;;;22.05;77.52;98768.81;10263885;29;20653;-87
2021/06/17 22:00:14;;;;;;;7.43;3.70;;;;;;;21.96;79.46;98766.88;10260230;29;20178;-85
2021/06/17 22:05:34;;;;;;;3.67;3.37;;;;;;;22.03;77.41;98772.09;10261914;29;20222;-84
2021/06/17 22:10:53;;;;;;;3.53;3.23;;;;;;;21.85;77.00;98761.06;10261461;29;20608;-87
2021/06/17 22:16:12;;;;;;;4.87;4.43;;;;;;;21.81;77.70;98754.88;10259367;29;20179;-86
2021/06/17 22:21:31;;;;;;;3.97;3.60;;;;;;;21.72;77.67;98774.59;10261274;29;20674;-86
2021/06/17 22:26:52;;;;;;;4.43;3.80;;;;;;;21.48;77.61;98761.09;10260526;29;20178;-85
2021/06/17 22:32:11;;;;;;;4.63;3.70;;;;;;;21.17;78.67;98757.91;10258622;29;20186;-85
2021/06/17 22:37:33;;;;;;;3.53;3.20;;;;;;;21.18;78.05;98765.06;10260303;29;20546;-84
2021/06/17 22:42:53;;;;;;;3.43;3.13;;;;;;;20.97;78.57;98763.34;10260217;28;20685;-84
2021/06/17 22:48:12;;;;;;;5.13;4.20;;;;;;;20.90;84.67;98769.31;10259726;29;20230;-84
2021/06/17 22:53:31;;;;;;;7.13;4.83;;;;;;;20.59;95.59;98765.25;10259800;29;20187;-84
2021/06/17 22:58:50;;;;;;;4.43;4.03;;;;;;;20.30;100.00;98765.09;10219501;29;20644;-84
2021/06/17 23:04:10;;;;;;;4.37;3.70;;;;;;;20.26;100.00;98765.25;10221286;29;20187;-84
2021/06/17 23:09:30;;;;;;;5.97;5.03;;;;;;;20.08;100.00;98765.31;10258336;29;20281;-86
2021/06/17 23:14:49;;;;;;;5.13;4.33;;;;;;;19.94;100.00;98769.97;10257725;29;20190;-86
2021/06/17 23:20:09;;;;;;;4.90;3.83;;;;;;;19.85;100.00;98767.19;10260108;29;20175;-84
2021/06/17 23:25:28;;;;;;;6.80;4.53;;;;;;;19.98;100.00;98771.41;10259239;29;20187;-85
2021/06/17 23:30:48;;;;;;;5.00;3.60;;;;;;;19.94;100.00;98781.16;10257349;29;20579;-85
2021/06/17 23:36:07;;;;;;;4.13;3.47;;;;;;;19.82;100.00;98776.50;10256807;29;20262;-85
2021/06/17 23:41:26;;;;;;;4.27;3.90;;;;;;;19.71;100.00;98770.63;10217557;29;20211;-84
2021/06/17 23:46:46;;;;;;;4.63;4.23;;;;;;;19.59;100.00;98775.13;10239089;29;20194;-84
2021/06/17 23:52:06;;;;;;;4.40;3.93;;;;;;;19.42;100.00;98773.13;10257526;29;20191;-86
2021/06/17 23:57:25;;;;;;;3.10;2.90;;;;;;;19.42;100.00;98778.72;10256555;29;20191;-85
